Time;durP1;ratioP1;P1;durP2;ratioP2;P2;SDS_P1;SDS_P2;PMS_P1;PMS_P2;Temp;Humidity;BMP_temperature;BMP_pressure;BME280_temperature;BME280_humidity;BME280_pressure;Samples;Min_cycle;Max_cycle;Signal;HPM_P1;HPM_P2
2023/05/29 00:00:07;;;;;;;6.23;3.97;;;13.80;99.90;;;;;;5130947;27;20720;-66
2023/05/29 00:02:35;;;;;;;6.77;4.20;;;13.80;99.90;;;;;;5112286;27;20684;-67
2023/05/29 00:05:05;;;;;;;10.83;4.13;;;13.70;99.90;;;;;;5130754;27;20945;-66
2023/05/29 00:07:32;;;;;;;11.73;4.43;;;13.70;99.90;;;;;;5130701;27;20427;-65
2023/05/29 00:09:58;;;;;;;7.70;4.37;;;13.70;99.90;;;;;;5130822;27;20449;-65
2023/05/29 00:12:24;;;;;;;8.33;4.57;;;13.60;99.90;;;;;;5130598;27;20430;-66
2023/05/29 00:14:49;;;;;;;7.60;4.10;;;13.60;99.90;;;;;;5130737;27;20557;-66
2023/05/29 00:17:15;;;;;;;14.23;4.20;;;13.50;99.90;;;;;;5130552;27;20673;-66
2023/05/29 00:19:42;;;;;;;9.13;4.10;;;13.30;99.90;;;;;;5130409;27;20188;-66
2023/05/29 00:22:08;;;;;;;10.20;4.50;;;13.40;99.90;;;;;;5130421;27;20415;-65
2023/05/29 00:24:33;;;;;;;7.30;4.80;;;13.30;99.90;;;;;;5130552;27;20470;-66
2023/05/29 00:27:01;;;;;;;9.00;3.70;;;13.30;99.90;;;;;;5130285;27;20201;-66
2023/05/29 00:29:27;;;;;;;7.13;4.70;;;13.40;99.90;;;;;;5111425;27;20757;-65
2023/05/29 00:31:53;;;;;;;12.93;5.00;;;13.40;99.90;;;;;;5130206;27;20490;-66
2023/05/29 00:34:19;;;;;;;9.73;4.40;;;13.40;99.90;;;;;;5130213;27;20419;-66
2023/05/29 00:36:46;;;;;;;8.30;4.33;;;13.40;99.90;;;;;;5130063;27;20470;-66
2023/05/29 00:39:12;;;;;;;6.83;4.90;;;13.10;99.90;;;;;;5130176;27;20471;-66
2023/05/29 00:41:37;;;;;;;11.03;4.63;;;13.10;99.90;;;;;;5129962;27;20438;-66
2023/05/29 00:44:03;;;;;;;9.47;4.63;;;13.00;99.90;;;;;;5129998;27;20968;-66
2023/05/29 00:46:31;;;;;;;7.63;4.50;;;12.60;99.90;;;;;;5129883;27;20411;-66
2023/05/29 00:48:57;;;;;;;7.07;4.40;;;12.50;99.90;;;;;;5111451;27;20241;-65
2023/05/29 00:51:25;;;;;;;11.13;4.50;;;12.50;99.90;;;;;;5129784;27;20420;-65
2023/05/29 00:53:52;;;;;;;7.93;4.00;;;12.70;99.90;;;;;;5129778;27;20514;-65
2023/05/29 00:56:20;;;;;;;7.30;4.07;;;12.70;99.90;;;;;;5111538;27;20422;-66
2023/05/29 00:58:51;;;;;;;9.20;4.70;;;12.70;99.90;;;;;;5129801;27;20948;-66
2023/05/29 01:01:18;;;;;;;9.10;4.97;;;12.80;99.90;;;;;;5129423;27;20410;-65
2023/05/29 01:03:45;;;;;;;5.77;3.90;;;12.70;99.90;;;;;;5129567;27;20946;-65
2023/05/29 01:06:11;;;;;;;7.10;4.40;;;12.70;99.90;;;;;;5129637;27;20418;-66
2023/05/29 01:08:36;;;;;;;7.97;4.70;;;12.60;99.90;;;;;;5129617;27;20471;-66
2023/05/29 01:11:20;;;;;;;11.10;5.43;;;12.70;99.90;;;;;;5129646;27;20915;-66
2023/05/29 01:13:48;;;;;;;7.90;4.43;;;12.60;99.90;;;;;;5110977;27;20187;-66
2023/05/29 01:16:56;;;;;;;9.40;4.60;;;12.50;99.90;;;;;;5129468;27;20461;-65
2023/05/29 01:19:50;;;;;;;14.33;4.70;;;12.50;99.90;;;;;;5124363;27;20429;-65
2023/05/29 01:22:40;;;;;;;9.10;4.27;;;12.40;99.90;;;;;;5130053;27;21009;-66
2023/05/29 01:26:00;;;;;;;7.50;4.60;;;12.40;99.90;;;;;;5129646;27;20745;-66
2023/05/29 01:28:32;;;;;;;9.73;4.80;;;12.50;99.90;;;;;;5073122;27;21064;-65
2023/05/29 01:30:59;;;;;;;6.40;4.40;;;12.40;99.90;;;;;;5130143;27;20421;-66
2023/05/29 01:33:26;;;;;;;6.23;3.93;;;12.20;99.90;;;;;;5130124;27;20456;-66
2023/05/29 01:35:52;;;;;;;13.63;5.07;;;12.30;99.90;;;;;;5130251;27;20410;-66
2023/05/29 01:38:18;;;;;;;7.10;4.27;;;12.20;99.90;;;;;;5130276;27;20438;-66
2023/05/29 01:40:44;;;;;;;8.70;4.77;;;12.20;99.90;;;;;;5130150;28;20179;-66
2023/05/29 01:43:10;;;;;;;8.93;4.80;;;12.20;99.90;;;;;;5129916;28;20258;-66
2023/05/29 01:45:36;;;;;;;9.97;4.73;;;12.20;99.90;;;;;;5130255;28;20446;-67
2023/05/29 01:48:02;;;;;;;10.63;4.80;;;12.10;99.90;;;;;;5129839;27;20904;-66
2023/05/29 01:50:29;;;;;;;8.27;4.80;;;12.10;99.90;;;;;;5129795;27;20453;-66
2023/05/29 01:52:54;;;;;;;6.63;4.17;;;12.30;99.90;;;;;;5130234;28;20505;-66
2023/05/29 01:55:20;;;;;;;8.00;4.37;;;12.10;99.90;;;;;;5130149;28;20907;-67
2023/05/29 01:57:46;;;;;;;10.57;5.10;;;12.20;99.90;;;;;;5129885;27;20208;-66
2023/05/29 02:00:13;;;;;;;10.43;4.53;;;12.00;99.90;;;;;;5130036;28;20218;-66
2023/05/29 02:02:39;;;;;;;9.23;4.80;;;12.10;99.90;;;;;;5130017;28;20437;-66
2023/05/29 02:05:07;;;;;;;8.10;4.10;;;12.00;99.90;;;;;;5129950;28;20783;-66
2023/05/29 02:07:33;;;;;;;7.30;4.87;;;12.00;99.90;;;;;;5129749;27;20718;-66
2023/05/29 02:09:59;;;;;;;8.07;4.03;;;12.00;99.90;;;;;;5129264;28;20420;-66
2023/05/29 02:12:24;;;;;;;10.07;4.87;;;12.00;99.90;;;;;;5129087;27;20414;-66
2023/05/29 02:14:50;;;;;;;6.47;4.47;;;12.00;99.90;;;;;;5132543;27;20224;-66
2023/05/29 02:17:16;;;;;;;9.40;4.53;;;11.90;99.90;;;;;;5133024;27;20690;-67
2023/05/29 02:19:42;;;;;;;8.17;4.90;;;11.90;99.90;;;;;;5114270;27;20448;-66
2023/05/29 02:22:07;;;;;;;7.10;4.67;;;11.90;99.90;;;;;;5133007;27;20177;-66
2023/05/29 02:24:33;;;;;;;15.17;5.00;;;12.00;99.90;;;;;;5114115;27;20212;-66
2023/05/29 02:26:59;;;;;;;5.37;4.23;;;11.90;99.90;;;;;;5132731;27;20438;-66
2023/05/29 02:29:24;;;;;;;6.27;4.27;;;11.80;99.90;;;;;;5132643;27;20183;-66
2023/05/29 02:31:50;;;;;;;12.20;5.27;;;11.70;99.90;;;;;;5132781;27;20179;-67
2023/05/29 02:34:16;;;;;;;8.20;5.30;;;11.70;99.90;;;;;;5132866;27;20190;-66
2023/05/29 02:36:41;;;;;;;8.30;5.23;;;11.70;99.90;;;;;;5132525;27;20207;-66
2023/05/29 02:39:07;;;;;;;11.10;5.30;;;11.70;99.90;;;;;;5132518;27;20661;-66
2023/05/29 02:41:33;;;;;;;10.90;5.10;;;11.70;99.90;;;;;;5132315;27;20203;-66
2023/05/29 02:43:58;;;;;;;15.07;5.60;;;11.70;99.90;;;;;;5132336;27;20256;-67
2023/05/29 02:46:24;;;;;;;8.67;5.10;;;11.70;99.90;;;;;;5132443;27;20179;-66
2023/05/29 02:48:49;;;;;;;8.00;4.43;;;11.80;99.90;;;;;;5132664;27;20244;-67
2023/05/29 02:51:15;;;;;;;8.33;5.20;;;11.60;99.90;;;;;;5132378;27;20176;-68
2023/05/29 02:53:41;;;;;;;10.10;4.33;;;11.60;99.90;;;;;;5132370;27;20263;-66
2023/05/29 02:56:08;;;;;;;5.93;3.83;;;11.50;99.90;;;;;;5132275;27;20185;-66
2023/05/29 02:58:35;;;;;;;6.20;4.20;;;11.50;99.90;;;;;;5131940;27;20696;-66
2023/05/29 03:01:03;;;;;;;8.33;4.10;;;11.40;99.90;;;;;;5132077;27;20997;-66
2023/05/29 03:03:29;;;;;;;7.80;4.50;;;11.20;99.90;;;;;;5131914;27;20459;-66
2023/05/29 03:05:55;;;;;;;13.33;5.13;;;11.10;99.90;;;;;;5131999;27;20413;-66
2023/05/29 03:08:20;;;;;;;5.60;4.30;;;11.10;99.90;;;;;;5131949;27;20523;-66
2023/05/29 03:10:47;;;;;;;8.77;4.30;;;11.10;99.90;;;;;;5132034;27;20609;-66
2023/05/29 03:13:13;;;;;;;7.40;4.80;;;11.00;99.90;;;;;;5131948;27;20598;-66
2023/05/29 03:15:38;;;;;;;7.07;4.80;;;11.10;99.90;;;;;;5131785;27;20931;-65
2023/05/29 03:18:04;;;;;;;10.20;4.87;;;11.10;99.90;;;;;;5131812;27;20445;-66
2023/05/29 03:20:29;;;;;;;7.70;5.40;;;11.00;99.90;;;;;;5131764;27;20290;-66
2023/05/29 03:22:55;;;;;;;9.70;5.00;;;10.90;99.90;;;;;;5132001;27;20320;-66
2023/05/29 03:25:21;;;;;;;13.53;5.73;;;11.00;99.90;;;;;;5131719;27;20185;-66
2023/05/29 03:27:46;;;;;;;8.57;5.00;;;10.90;99.90;;;;;;5132084;27;20259;-66
2023/05/29 03:30:12;;;;;;;10.63;5.53;;;10.90;99.90;;;;;;5096904;27;20244;-65
2023/05/29 03:32:38;;;;;;;7.43;5.10;;;10.90;99.90;;;;;;5132525;27;20178;-66
2023/05/29 03:35:04;;;;;;;10.07;5.40;;;11.00;99.90;;;;;;5132174;27;20659;-66
2023/05/29 03:37:30;;;;;;;8.43;5.33;;;11.00;99.90;;;;;;5131739;27;20290;-66
2023/05/29 03:39:55;;;;;;;13.03;4.87;;;11.00;99.90;;;;;;5131459;27;20186;-66
2023/05/29 03:42:21;;;;;;;12.03;4.80;;;11.00;99.90;;;;;;5112780;27;20824;-66
2023/05/29 03:44:47;;;;;;;8.50;4.80;;;10.90;99.90;;;;;;5131230;27;20219;-66
2023/05/29 03:47:12;;;;;;;14.23;5.80;;;10.90;99.90;;;;;;5131454;27;20230;-66
2023/05/29 03:49:38;;;;;;;11.23;5.70;;;10.90;99.90;;;;;;5131219;27;20240;-66
2023/05/29 03:52:04;;;;;;;6.90;4.40;;;10.90;99.90;;;;;;5131158;27;20680;-66
2023/05/29 03:54:30;;;;;;;22.20;5.40;;;11.00;99.90;;;;;;5131583;27;20190;-66
2023/05/29 03:56:55;;;;;;;6.73;4.90;;;11.00;99.90;;;;;;5131022;27;20592;-66
2023/05/29 03:59:21;;;;;;;11.50;5.20;;;11.10;99.90;;;;;;5130978;27;20595;-66
2023/05/29 04:01:47;;;;;;;9.20;5.00;;;11.00;99.90;;;;;;5130948;27;20217;-66
2023/05/29 04:04:12;;;;;;;7.50;5.10;;;11.10;99.90;;;;;;5130796;27;20210;-66
2023/05/29 04:06:38;;;;;;;11.83;5.20;;;11.10;99.90;;;;;;5130808;27;20670;-66
2023/05/29 04:09:06;;;;;;;8.10;5.13;;;11.10;99.90;;;;;;5131068;27;20176;-66
2023/05/29 04:11:34;;;;;;;10.00;6.10;;;11.20;99.90;;;;;;5130811;27;20431;-67
2023/05/29 04:14:00;;;;;;;8.73;5.80;;;11.20;99.90;;;;;;5130710;27;20425;-66
2023/05/29 04:16:26;;;;;;;8.83;5.73;;;11.30;99.90;;;;;;5130813;27;20451;-66
2023/05/29 04:18:52;;;;;;;11.30;5.13;;;11.40;99.90;;;;;;5130511;27;20425;-66
2023/05/29 04:21:18;;;;;;;8.67;5.80;;;11.50;99.90;;;;;;5130549;27;20421;-66
2023/05/29 04:23:43;;;;;;;8.63;5.33;;;11.60;99.90;;;;;;5130311;27;20213;-66
2023/05/29 04:26:10;;;;;;;14.67;6.00;;;11.70;99.90;;;;;;5130400;27;20184;-66
2023/05/29 04:28:37;;;;;;;10.80;5.80;;;11.70;99.90;;;;;;5111861;27;20556;-66
2023/05/29 04:31:03;;;;;;;10.17;5.00;;;11.80;99.90;;;;;;5130343;27;20412;-66
2023/05/29 04:33:29;;;;;;;10.10;5.70;;;11.90;99.90;;;;;;5130520;27;20413;-67
2023/05/29 04:35:55;;;;;;;9.57;5.80;;;12.00;99.90;;;;;;5111084;27;20183;-66
2023/05/29 04:38:24;;;;;;;8.53;5.50;;;12.10;99.90;;;;;;5130307;27;20437;-66
2023/05/29 04:40:51;;;;;;;11.50;5.87;;;12.20;99.90;;;;;;5130100;27;20807;-66
2023/05/29 04:43:16;;;;;;;8.17;5.00;;;12.20;99.90;;;;;;5129940;27;20481;-66
2023/05/29 04:45:42;;;;;;;9.57;5.90;;;12.30;99.90;;;;;;5130233;27;20771;-66
2023/05/29 04:48:08;;;;;;;14.20;6.00;;;12.20;99.90;;;;;;5129141;27;20204;-66
2023/05/29 04:50:36;;;;;;;10.37;5.70;;;12.30;99.90;;;;;;5130035;27;20184;-66
2023/05/29 04:53:02;;;;;;;14.50;6.70;;;12.30;99.90;;;;;;5130298;27;20418;-67
2023/05/29 04:55:27;;;;;;;10.40;5.90;;;12.40;99.90;;;;;;5129843;27;20470;-66
2023/05/29 04:57:53;;;;;;;13.17;6.07;;;12.30;99.90;;;;;;5129788;27;20231;-66
2023/05/29 05:00:19;;;;;;;11.27;5.37;;;12.30;99.90;;;;;;5111296;27;20689;-66
2023/05/29 05:02:46;;;;;;;9.70;5.90;;;12.40;99.90;;;;;;5129822;27;20581;-66
2023/05/29 05:05:12;;;;;;;13.10;6.17;;;12.60;99.90;;;;;;5130068;27;20901;-66
2023/05/29 05:07:38;;;;;;;13.20;5.67;;;12.70;99.90;;;;;;5129631;27;20473;-67
2023/05/29 05:10:04;;;;;;;8.77;5.50;;;12.80;99.90;;;;;;5129579;27;20982;-66
2023/05/29 05:12:30;;;;;;;16.97;6.70;;;12.90;99.90;;;;;;5129690;27;20669;-66
2023/05/29 05:14:55;;;;;;;12.47;6.20;;;13.10;99.90;;;;;;5129577;27;20422;-66
2023/05/29 05:17:21;;;;;;;15.20;6.93;;;13.30;99.90;;;;;;5129503;27;20440;-66
2023/05/29 05:19:49;;;;;;;13.73;6.03;;;13.40;99.90;;;;;;5110676;27;20204;-67
2023/05/29 05:22:14;;;;;;;12.90;6.00;;;13.50;99.90;;;;;;5129532;27;20424;-66
2023/05/29 05:24:40;;;;;;;11.83;6.00;;;13.60;99.90;;;;;;5129456;27;20472;-66
2023/05/29 05:27:06;;;;;;;13.90;6.70;;;13.70;99.90;;;;;;5110786;27;20237;-66
2023/05/29 05:29:32;;;;;;;9.70;5.37;;;13.80;99.90;;;;;;5110753;27;20188;-66
2023/05/29 05:31:57;;;;;;;13.50;6.77;;;13.80;99.90;;;;;;5129692;27;20188;-66
2023/05/29 05:34:23;;;;;;;14.27;6.70;;;13.90;99.90;;;;;;5129396;27;20603;-66
2023/05/29 05:36:49;;;;;;;18.83;7.20;;;13.90;99.90;;;;;;5129426;27;20286;-67
2023/05/29 05:39:14;;;;;;;10.67;6.17;;;14.20;99.90;;;;;;5129392;27;20221;-67
2023/05/29 05:41:40;;;;;;;12.00;7.03;;;14.30;99.90;;;;;;5129254;27;20434;-66
2023/05/29 05:44:06;;;;;;;17.60;7.10;;;14.50;99.90;;;;;;5129243;28;20212;-66
2023/05/29 05:46:31;;;;;;;15.50;7.73;;;14.60;99.90;;;;;;5129188;27;20665;-66
2023/05/29 05:48:57;;;;;;;10.50;7.20;;;14.80;99.90;;;;;;5133390;27;20181;-66
2023/05/29 05:51:23;;;;;;;12.60;5.87;;;14.80;99.90;;;;;;5133635;27;20352;-67
2023/05/29 05:53:49;;;;;;;13.37;6.53;;;15.00;99.90;;;;;;5133539;27;20181;-67
2023/05/29 05:56:15;;;;;;;9.40;6.30;;;15.20;99.90;;;;;;5133331;27;20427;-67
2023/05/29 05:58:41;;;;;;;11.20;6.20;;;15.30;99.90;;;;;;5114861;27;20317;-67
2023/05/29 06:01:08;;;;;;;11.60;6.87;;;15.40;99.90;;;;;;5133345;27;20615;-67
2023/05/29 06:03:34;;;;;;;14.83;6.80;;;15.40;99.90;;;;;;5133184;27;20974;-66
2023/05/29 06:06:00;;;;;;;14.20;6.90;;;15.40;99.90;;;;;;5114742;27;20462;-67
2023/05/29 06:08:26;;;;;;;12.10;7.10;;;15.50;99.90;;;;;;5133222;27;20439;-67
2023/05/29 06:10:52;;;;;;;9.13;6.00;;;15.60;99.90;;;;;;5133074;27;20419;-66
2023/05/29 06:13:18;;;;;;;11.27;6.80;;;15.60;99.90;;;;;;5133052;27;20281;-65
2023/05/29 06:15:43;;;;;;;10.17;6.83;;;15.80;99.90;;;;;;5132995;27;20286;-66
2023/05/29 06:18:09;;;;;;;11.23;6.70;;;15.90;99.90;;;;;;5132938;27;20297;-65
2023/05/29 06:20:35;;;;;;;13.13;6.90;;;15.90;99.90;;;;;;5132993;27;20184;-67
2023/05/29 06:23:00;;;;;;;10.60;5.90;;;16.10;99.90;;;;;;5114172;27;20722;-66
2023/05/29 06:25:32;;;;;;;10.80;6.10;;;16.20;99.90;;;;;;5132844;27;20278;-67
2023/05/29 06:27:59;;;;;;;9.87;6.17;;;16.30;99.90;;;;;;5114220;27;20198;-67
2023/05/29 06:30:25;;;;;;;12.30;6.57;;;16.20;99.90;;;;;;5132940;27;20412;-68
2023/05/29 06:32:50;;;;;;;9.90;6.30;;;16.30;99.90;;;;;;5132850;27;20871;-67
2023/05/29 06:35:16;;;;;;;15.10;7.07;;;16.40;99.90;;;;;;5114335;27;20888;-67
2023/05/29 06:37:42;;;;;;;12.30;6.30;;;16.50;99.90;;;;;;5132472;27;20207;-66
2023/05/29 06:40:08;;;;;;;10.00;5.80;;;16.70;99.90;;;;;;5132461;27;20677;-67
2023/05/29 06:42:33;;;;;;;9.23;5.90;;;16.80;99.90;;;;;;5132510;27;20247;-67
2023/05/29 06:44:59;;;;;;;10.53;6.07;;;16.80;99.90;;;;;;5113742;27;21028;-66
2023/05/29 06:47:24;;;;;;;10.30;5.90;;;16.90;99.90;;;;;;5132411;27;20210;-67
2023/05/29 06:49:50;;;;;;;10.33;5.93;;;17.00;99.90;;;;;;5113840;27;20184;-67
2023/05/29 06:52:15;;;;;;;13.10;6.30;;;17.10;99.90;;;;;;5132330;27;20205;-67
2023/05/29 06:54:41;;;;;;;9.50;5.90;;;17.10;99.90;;;;;;5132358;27;20329;-67
2023/05/29 06:57:07;;;;;;;13.67;6.20;;;17.20;99.90;;;;;;5132086;27;20735;-67
2023/05/29 06:59:33;;;;;;;10.27;6.43;;;17.20;99.90;;;;;;5131407;27;20425;-67
2023/05/29 07:01:58;;;;;;;13.03;6.43;;;17.30;99.90;;;;;;5132086;27;20573;-66
2023/05/29 07:04:24;;;;;;;8.83;6.00;;;17.20;99.90;;;;;;5131907;27;20210;-67
2023/05/29 07:06:49;;;;;;;8.43;5.60;;;17.30;99.90;;;;;;5131938;27;20239;-67
2023/05/29 07:09:15;;;;;;;11.90;6.30;;;17.40;99.90;;;;;;5132051;27;20198;-67
2023/05/29 07:11:41;;;;;;;10.40;5.57;;;17.50;99.90;;;;;;5113410;27;20180;-66
2023/05/29 07:14:06;;;;;;;9.23;5.93;;;17.50;99.90;;;;;;5131892;27;20284;-66
2023/05/29 07:16:32;;;;;;;7.97;5.90;;;17.70;99.90;;;;;;5131841;27;20637;-66
2023/05/29 07:18:57;;;;;;;10.67;6.00;;;17.90;99.90;;;;;;5113330;27;20188;-67
2023/05/29 07:21:23;;;;;;;9.80;5.87;;;17.90;99.90;;;;;;5131721;27;20208;-66
2023/05/29 07:23:49;;;;;;;10.70;6.23;;;18.00;99.90;;;;;;5096209;27;20201;-67
2023/05/29 07:26:14;;;;;;;9.73;6.77;;;18.10;99.90;;;;;;5131609;27;20180;-67
2023/05/29 07:28:40;;;;;;;11.20;6.00;;;18.00;99.90;;;;;;5131522;27;20288;-67
2023/05/29 07:31:05;;;;;;;16.07;6.40;;;18.00;99.90;;;;;;5095996;27;20189;-67
2023/05/29 07:33:31;;;;;;;10.00;5.80;;;18.10;99.90;;;;;;5112980;27;20280;-67
2023/05/29 07:35:57;;;;;;;14.10;6.20;;;18.20;99.90;;;;;;5131443;27;20564;-67
2023/05/29 07:38:22;;;;;;;10.03;6.00;;;18.40;99.90;;;;;;5131406;27;20206;-67
2023/05/29 07:40:48;;;;;;;13.93;6.40;;;18.40;99.90;;;;;;5131358;27;20209;-67
2023/05/29 07:43:13;;;;;;;10.03;5.70;;;18.40;99.90;;;;;;5131189;27;20598;-68
2023/05/29 07:45:39;;;;;;;10.10;5.77;;;18.40;99.90;;;;;;5131433;27;20243;-65
2023/05/29 07:48:05;;;;;;;8.63;5.70;;;18.60;99.90;;;;;;5131226;27;20203;-66
2023/05/29 07:50:30;;;;;;;9.50;5.90;;;18.60;99.90;;;;;;5131356;27;20576;-67
2023/05/29 07:52:57;;;;;;;9.90;5.27;;;18.70;99.90;;;;;;5112830;27;20429;-66
2023/05/29 07:55:22;;;;;;;10.93;6.10;;;18.80;99.90;;;;;;5131725;27;20292;-66
2023/05/29 07:57:48;;;;;;;12.40;6.23;;;18.90;99.90;;;;;;5131647;27;20634;-74
2023/05/29 08:00:15;;;;;;;13.37;5.83;;;19.00;99.90;;;;;;5113436;27;20187;-73
2023/05/29 08:02:42;;;;;;;7.43;5.50;;;19.10;99.90;;;;;;5096565;27;20523;-73
2023/05/29 08:05:08;;;;;;;8.07;5.53;;;19.20;99.90;;;;;;5131792;27;20410;-73
2023/05/29 08:07:35;;;;;;;8.07;5.80;;;19.30;99.90;;;;;;5131873;27;20447;-73
2023/05/29 08:10:00;;;;;;;8.43;6.30;;;19.50;99.90;;;;;;5113281;27;20417;-72
2023/05/29 08:12:26;;;;;;;10.30;6.00;;;19.50;99.90;;;;;;5112971;27;20927;-73
2023/05/29 08:14:51;;;;;;;11.40;6.00;;;19.70;99.90;;;;;;5113475;27;20186;-73
2023/05/29 08:17:17;;;;;;;8.83;6.10;;;19.90;99.90;;;;;;5113023;27;20225;-73
2023/05/29 08:19:43;;;;;;;12.20;5.87;;;19.90;99.90;;;;;;5131662;27;20808;-73
2023/05/29 08:22:13;;;;;;;7.83;5.57;;;20.00;99.90;;;;;;5131581;27;20191;-72
2023/05/29 08:24:39;;;;;;;9.83;5.87;;;20.20;99.90;;;;;;5131309;27;20676;-73
2023/05/29 08:27:05;;;;;;;8.77;6.10;;;20.40;99.90;;;;;;5131334;27;20452;-73
2023/05/29 08:29:30;;;;;;;12.47;5.73;;;20.50;99.90;;;;;;5131448;27;20267;-73
2023/05/29 08:31:56;;;;;;;8.63;6.20;;;20.70;99.90;;;;;;5131542;27;20173;-73
2023/05/29 08:34:21;;;;;;;9.23;5.50;;;20.80;99.90;;;;;;5131440;27;20185;-73
2023/05/29 08:36:48;;;;;;;18.27;5.90;;;21.00;99.90;;;;;;5112830;27;20288;-72
2023/05/29 08:39:14;;;;;;;8.63;5.90;;;21.10;99.90;;;;;;5112776;27;20173;-73
2023/05/29 08:42:01;;;;;;;15.03;6.20;;;21.30;99.30;;;;;;5130820;27;20441;-73
2023/05/29 08:44:31;;;;;;;8.60;5.10;;;21.40;99.40;;;;;;5130222;27;20185;-73
2023/05/29 08:47:00;;;;;;;9.97;6.23;;;21.50;98.60;;;;;;5129792;27;20435;-73
2023/05/29 08:49:29;;;;;;;8.00;5.90;;;21.50;97.40;;;;;;5129585;27;20450;-73
2023/05/29 08:52:20;;;;;;;10.37;5.50;;;21.60;96.80;;;;;;5129502;27;20417;-73
2023/05/29 08:54:46;;;;;;;7.17;5.20;;;21.90;96.00;;;;;;5110492;27;20938;-73
2023/05/29 08:57:12;;;;;;;11.40;5.93;;;22.30;96.90;;;;;;5129138;27;20895;-73
2023/05/29 08:59:41;;;;;;;10.87;5.53;;;22.60;95.90;;;;;;5110632;27;20692;-72
2023/05/29 09:02:08;;;;;;;9.70;5.63;;;22.80;94.90;;;;;;5129062;27;20892;-72
2023/05/29 09:04:33;;;;;;;13.90;5.97;;;22.90;93.30;;;;;;5129074;27;20450;-73
2023/05/29 09:06:59;;;;;;;9.23;4.93;;;23.10;93.80;;;;;;5129163;27;20446;-73
2023/05/29 09:09:28;;;;;;;9.40;5.80;;;23.40;93.30;;;;;;5110414;27;20205;-73
2023/05/29 09:11:56;;;;;;;11.20;5.97;;;23.60;91.90;;;;;;5128871;27;20181;-73
2023/05/29 09:14:42;;;;;;;9.30;5.20;;;24.00;91.60;;;;;;5128911;27;20755;-73
2023/05/29 09:17:08;;;;;;;10.13;5.50;;;24.20;88.30;;;;;;5110305;27;20431;-73
2023/05/29 09:19:35;;;;;;;8.13;5.53;;;24.30;88.00;;;;;;5110403;27;20424;-73
2023/05/29 09:22:04;;;;;;;9.77;5.20;;;24.50;87.80;;;;;;5128483;27;20791;-73
2023/05/29 09:24:32;;;;;;;11.30;5.47;;;24.60;84.50;;;;;;5128848;27;20546;-72
2023/05/29 09:27:00;;;;;;;10.87;6.10;;;24.80;83.80;;;;;;5128972;27;20773;-74
2023/05/29 09:29:32;;;;;;;11.73;5.23;;;24.90;83.20;;;;;;5128996;27;20421;-71
2023/05/29 09:31:58;;;;;;;9.20;5.47;;;25.20;79.10;;;;;;5129248;27;20501;-73
2023/05/29 09:34:27;;;;;;;8.17;5.40;;;25.40;77.80;;;;;;5129186;27;20842;-73
2023/05/29 09:36:53;;;;;;;10.03;5.33;;;25.60;78.40;;;;;;5110611;28;20449;-72
2023/05/29 09:39:19;;;;;;;6.07;4.70;;;25.80;75.10;;;;;;5129407;27;20500;-72
2023/05/29 09:41:45;;;;;;;9.37;5.10;;;26.00;74.90;;;;;;5129210;27;20446;-70
2023/05/29 09:44:13;;;;;;;7.30;5.00;;;26.30;72.50;;;;;;5128534;28;20482;-73
2023/05/29 09:46:41;;;;;;;6.60;4.97;;;26.40;73.00;;;;;;5128877;27;20418;-74
2023/05/29 09:49:13;;;;;;;7.97;5.27;;;26.60;68.30;;;;;;5128795;28;20799;-72
2023/05/29 09:51:39;;;;;;;6.93;4.87;;;26.80;72.10;;;;;;5109985;28;20529;-71
2023/05/29 09:54:18;;;;;;;9.00;5.23;;;26.80;68.60;;;;;;5128764;28;20529;-74
2023/05/29 09:56:45;;;;;;;12.20;6.27;;;26.80;71.00;;;;;;5128672;27;20499;-74
2023/05/29 09:59:15;;;;;;;8.20;5.87;;;26.90;70.50;;;;;;5129278;28;20498;-73
2023/05/29 10:01:43;;;;;;;10.20;5.30;;;27.00;68.40;;;;;;5129460;28;20808;-74
2023/05/29 10:04:10;;;;;;;6.80;4.60;;;27.20;67.60;;;;;;5129538;28;20474;-74
2023/05/29 10:06:37;;;;;;;7.50;5.40;;;27.20;67.80;;;;;;5109959;27;20442;-73
2023/05/29 10:09:05;;;;;;;5.60;4.83;;;27.10;67.60;;;;;;5109814;28;20519;-73
2023/05/29 10:11:32;;;;;;;8.70;5.13;;;27.20;67.90;;;;;;5109399;28;20419;-74
2023/05/29 10:14:00;;;;;;;5.13;4.53;;;27.50;67.50;;;;;;5128576;28;20502;-73
2023/05/29 10:16:27;;;;;;;9.43;5.23;;;27.70;67.50;;;;;;5127772;27;20423;-74
2023/05/29 10:18:57;;;;;;;6.70;4.90;;;27.70;67.30;;;;;;5109379;28;20471;-74
2023/05/29 10:21:26;;;;;;;8.90;4.87;;;27.80;64.90;;;;;;5109394;28;20423;-73
2023/05/29 10:23:54;;;;;;;7.73;5.00;;;27.60;64.80;;;;;;5127653;28;20462;-73
2023/05/29 10:26:26;;;;;;;10.17;5.00;;;27.80;65.50;;;;;;5128057;27;20423;-76
2023/05/29 10:29:11;;;;;;;8.93;4.93;;;28.00;66.30;;;;;;5127894;28;20423;-72
2023/05/29 10:32:02;;;;;;;10.93;5.13;;;28.20;64.00;;;;;;5127708;28;20475;-72
2023/05/29 10:34:39;;;;;;;5.57;4.47;;;28.20;64.60;;;;;;5128714;27;20828;-73
2023/05/29 10:37:05;;;;;;;6.17;4.63;;;28.20;63.00;;;;;;5131400;27;20453;-75
2023/05/29 10:39:31;;;;;;;5.40;4.40;;;27.70;59.80;;;;;;5112647;27;20426;-74
2023/05/29 10:41:58;;;;;;;5.37;3.83;;;27.40;61.60;;;;;;5131194;27;20269;-75
2023/05/29 10:44:32;;;;;;;10.40;3.83;;;27.20;62.60;;;;;;5112779;27;20204;-75
2023/05/29 10:47:02;;;;;;;7.40;4.50;;;27.00;63.20;;;;;;5131248;27;20444;-75
2023/05/29 10:49:29;;;;;;;6.13;3.73;;;26.90;61.70;;;;;;5131178;27;20972;-74
2023/05/29 10:51:57;;;;;;;7.53;4.57;;;26.50;61.40;;;;;;5131198;27;20759;-73
2023/05/29 10:54:25;;;;;;;9.57;4.77;;;26.40;62.70;;;;;;5131062;27;20457;-76
2023/05/29 10:57:00;;;;;;;8.90;4.17;;;26.40;61.70;;;;;;5111980;27;20820;-76
2023/05/29 10:59:27;;;;;;;7.40;4.30;;;26.40;61.10;;;;;;5130828;27;20457;-76
2023/05/29 11:01:54;;;;;;;7.13;3.87;;;26.40;58.90;;;;;;5112199;27;20458;-75
2023/05/29 11:04:26;;;;;;;6.23;4.20;;;26.50;60.60;;;;;;5111964;27;20538;-76
2023/05/29 11:06:52;;;;;;;8.23;4.73;;;26.60;58.90;;;;;;5131027;27;20434;-75
2023/05/29 11:09:29;;;;;;;9.63;4.10;;;26.40;59.00;;;;;;5130683;27;20419;-77
2023/05/29 11:12:23;;;;;;;7.83;4.20;;;26.20;58.30;;;;;;5131006;27;20414;-76
2023/05/29 11:14:57;;;;;;;9.93;4.60;;;26.20;58.90;;;;;;5111702;27;20419;-75
2023/05/29 11:17:37;;;;;;;5.43;4.07;;;26.10;58.90;;;;;;5130299;27;20875;-76
2023/05/29 11:20:08;;;;;;;9.13;4.57;;;26.20;59.90;;;;;;5130659;27;20416;-76
2023/05/29 11:22:56;;;;;;;7.13;4.30;;;26.40;61.70;;;;;;5111454;27;20851;-76
2023/05/29 11:25:22;;;;;;;6.10;3.50;;;26.50;60.00;;;;;;5130755;27;20488;-77
2023/05/29 11:27:47;;;;;;;8.63;4.27;;;26.30;57.90;;;;;;5111613;27;20966;-76
2023/05/29 11:30:13;;;;;;;5.60;4.23;;;26.30;56.80;;;;;;5111981;27;20273;-74
2023/05/29 11:32:41;;;;;;;7.30;3.70;;;26.40;59.50;;;;;;5111672;27;20177;-75
2023/05/29 11:35:10;;;;;;;11.23;3.80;;;26.40;58.40;;;;;;5094662;27;20421;-75
2023/05/29 11:37:38;;;;;;;9.93;3.30;;;26.50;58.00;;;;;;5111630;27;20433;-75
2023/05/29 11:40:09;;;;;;;7.20;4.20;;;26.40;57.20;;;;;;5111764;27;20445;-75
2023/05/29 11:42:35;;;;;;;5.90;4.20;;;26.60;57.50;;;;;;5111118;27;20446;-75
2023/05/29 11:45:21;;;;;;;10.73;4.30;;;26.60;58.50;;;;;;5129908;27;20896;-75
2023/05/29 11:47:57;;;;;;;9.70;3.50;;;26.50;55.30;;;;;;5130630;27;20434;-75
2023/05/29 11:50:33;;;;;;;7.63;3.67;;;26.50;57.30;;;;;;5129943;27;20914;-75
2023/05/29 11:53:00;;;;;;;6.27;4.20;;;26.60;56.70;;;;;;5111598;27;20431;-76
2023/05/29 11:55:26;;;;;;;9.57;4.17;;;26.70;55.70;;;;;;5110983;27;20463;-75
2023/05/29 11:58:00;;;;;;;7.00;3.60;;;26.60;54.10;;;;;;5130060;27;20435;-75
2023/05/29 12:00:30;;;;;;;8.60;4.27;;;26.60;51.00;;;;;;5129694;27;20827;-76
2023/05/29 12:02:58;;;;;;;5.07;3.90;;;26.60;51.30;;;;;;5094527;27;20430;-76
2023/05/29 12:05:24;;;;;;;5.93;3.60;;;26.50;50.10;;;;;;5110629;27;20518;-76
2023/05/29 12:07:56;;;;;;;9.37;4.20;;;26.40;49.50;;;;;;5110728;27;20487;-75
2023/05/29 12:10:23;;;;;;;4.03;3.37;;;26.50;51.20;;;;;;5111091;27;20419;-75
2023/05/29 12:12:53;;;;;;;5.30;3.57;;;26.40;51.00;;;;;;5129140;27;20442;-75
2023/05/29 12:15:19;;;;;;;4.07;3.40;;;26.40;50.80;;;;;;5129204;27;20847;-76
2023/05/29 12:17:46;;;;;;;7.83;3.60;;;26.40;51.70;;;;;;5129171;27;20563;-76
2023/05/29 12:20:13;;;;;;;8.43;3.53;;;26.40;52.20;;;;;;5129100;27;20418;-76
2023/05/29 12:22:41;;;;;;;6.90;3.53;;;26.40;51.10;;;;;;5129294;27;20473;-75
2023/05/29 12:25:09;;;;;;;5.30;3.83;;;26.30;49.20;;;;;;5128919;27;20537;-75
2023/05/29 12:27:41;;;;;;;5.10;4.10;;;26.30;50.30;;;;;;5110200;27;20871;-75
2023/05/29 12:30:14;;;;;;;5.93;3.17;;;26.30;49.30;;;;;;5129005;27;20859;-75
2023/05/29 12:32:42;;;;;;;5.10;3.90;;;26.10;48.90;;;;;;5128828;27;20497;-74
2023/05/29 12:35:27;;;;;;;5.17;3.77;;;26.20;49.30;;;;;;5128955;27;20422;-74
2023/05/29 12:38:00;;;;;;;5.50;3.67;;;26.10;48.90;;;;;;5128793;27;20435;-75
2023/05/29 12:40:30;;;;;;;5.60;3.53;;;26.30;49.40;;;;;;5110176;27;20430;-74
2023/05/29 12:42:58;;;;;;;5.53;3.20;;;26.20;49.80;;;;;;5109923;27;20437;-74
2023/05/29 12:45:29;;;;;;;7.50;3.27;;;26.30;50.30;;;;;;5128691;27;20418;-74